Terminal Aerodrome Forecast
Issued by NWS

Home | Current Version | Previous Version | Text Only | Print | Product List | Glossary Off
Versions: 1 2 3 4 5 6 7 8 9 10 11 12 13 14 15 16 17 18 19 20 21

000
FTUS43 KMPX 261728
TAFAXN
TAF
KAXN 261728Z 2618/2718 24010KT P6SM SKC
     FM270100 12004KT P6SM SCT250
     FM271200 10007KT P6SM OVC250
     FM271600 10009KT P6SM BKN050 OVC100 PROB30 2716/2718 -RA
      OVC030=

USA.gov is the U.S. government's official web portal to all federal, state and local government web resources and services.